sensor_id;sensor_type;location;lat;lon;timestamp;P1;durP1;ratioP1;P2;durP2;ratioP2
84244;SDS011;74383;44.552;18.100;2024-02-14T00:02:16;26.02;;;12.55;;
84244;SDS011;74383;44.552;18.100;2024-02-14T00:04:42;29.15;;;12.98;;
84244;SDS011;74383;44.552;18.100;2024-02-14T00:07:07;33.95;;;13.80;;
84244;SDS011;74383;44.552;18.100;2024-02-14T00:09:33;29.05;;;13.48;;
84244;SDS011;74383;44.552;18.100;2024-02-14T00:11:58;26.98;;;11.40;;
84244;SDS011;74383;44.552;18.100;2024-02-14T00:14:24;28.23;;;13.27;;
84244;SDS011;74383;44.552;18.100;2024-02-14T00:16:50;33.03;;;14.05;;
84244;SDS011;74383;44.552;18.100;2024-02-14T00:19:16;32.55;;;14.93;;
84244;SDS011;74383;44.552;18.100;2024-02-14T00:21:41;31.85;;;14.52;;
84244;SDS011;74383;44.552;18.100;2024-02-14T00:24:07;26.80;;;12.40;;
84244;SDS011;74383;44.552;18.100;2024-02-14T00:26:33;30.52;;;12.68;;
84244;SDS011;74383;44.552;18.100;2024-02-14T00:28:59;27.58;;;12.10;;
84244;SDS011;74383;44.552;18.100;2024-02-14T00:31:24;26.05;;;11.65;;
84244;SDS011;74383;44.552;18.100;2024-02-14T00:33:50;21.42;;;9.35;;
84244;SDS011;74383;44.552;18.100;2024-02-14T00:36:16;23.38;;;8.70;;
84244;SDS011;74383;44.552;18.100;2024-02-14T00:38:41;14.98;;;7.05;;
84244;SDS011;74383;44.552;18.100;2024-02-14T00:41:07;17.27;;;8.02;;
84244;SDS011;74383;44.552;18.100;2024-02-14T00:43:33;18.83;;;9.00;;
84244;SDS011;74383;44.552;18.100;2024-02-14T00:45:58;21.83;;;9.13;;
84244;SDS011;74383;44.552;18.100;2024-02-14T00:48:24;17.20;;;8.50;;
84244;SDS011;74383;44.552;18.100;2024-02-14T00:50:49;25.05;;;11.65;;
84244;SDS011;74383;44.552;18.100;2024-02-14T00:53:17;24.23;;;9.65;;
84244;SDS011;74383;44.552;18.100;2024-02-14T00:55:42;23.60;;;9.80;;
84244;SDS011;74383;44.552;18.100;2024-02-14T00:58:08;23.90;;;10.88;;
84244;SDS011;74383;44.552;18.100;2024-02-14T01:00:33;27.92;;;11.70;;
84244;SDS011;74383;44.552;18.100;2024-02-14T01:02:59;30.20;;;12.65;;
84244;SDS011;74383;44.552;18.100;2024-02-14T01:05:24;29.45;;;12.30;;
84244;SDS011;74383;44.552;18.100;2024-02-14T01:07:50;33.85;;;13.20;;
84244;SDS011;74383;44.552;18.100;2024-02-14T01:10:16;37.20;;;14.18;;
84244;SDS011;74383;44.552;18.100;2024-02-14T01:12:43;37.35;;;15.25;;
84244;SDS011;74383;44.552;18.100;2024-02-14T01:15:09;33.22;;;13.68;;
84244;SDS011;74383;44.552;18.100;2024-02-14T01:17:35;37.78;;;14.82;;
84244;SDS011;74383;44.552;18.100;2024-02-14T01:20:01;44.75;;;15.90;;
84244;SDS011;74383;44.552;18.100;2024-02-14T01:22:27;45.78;;;15.93;;
84244;SDS011;74383;44.552;18.100;2024-02-14T01:24:53;34.92;;;13.98;;
84244;SDS011;74383;44.552;18.100;2024-02-14T01:27:19;38.33;;;14.57;;
84244;SDS011;74383;44.552;18.100;2024-02-14T01:29:48;38.10;;;13.85;;
84244;SDS011;74383;44.552;18.100;2024-02-14T01:32:13;41.58;;;14.57;;
84244;SDS011;74383;44.552;18.100;2024-02-14T01:34:39;32.08;;;13.43;;
84244;SDS011;74383;44.552;18.100;2024-02-14T01:37:07;34.35;;;13.55;;
84244;SDS011;74383;44.552;18.100;2024-02-14T01:39:35;44.92;;;16.70;;
84244;SDS011;74383;44.552;18.100;2024-02-14T01:42:00;39.50;;;17.15;;
84244;SDS011;74383;44.552;18.100;2024-02-14T01:44:26;45.72;;;17.30;;
84244;SDS011;74383;44.552;18.100;2024-02-14T01:46:51;39.20;;;15.32;;
84244;SDS011;74383;44.552;18.100;2024-02-14T01:49:18;41.33;;;15.93;;
84244;SDS011;74383;44.552;18.100;2024-02-14T01:51:44;37.25;;;13.98;;
84244;SDS011;74383;44.552;18.100;2024-02-14T01:54:12;31.88;;;14.52;;
84244;SDS011;74383;44.552;18.100;2024-02-14T01:56:39;31.20;;;12.77;;
84244;SDS011;74383;44.552;18.100;2024-02-14T01:59:05;32.10;;;12.73;;
84244;SDS011;74383;44.552;18.100;2024-02-14T02:01:32;27.50;;;12.85;;
84244;SDS011;74383;44.552;18.100;2024-02-14T02:03:58;34.20;;;13.35;;
84244;SDS011;74383;44.552;18.100;2024-02-14T02:06:24;33.05;;;14.32;;
84244;SDS011;74383;44.552;18.100;2024-02-14T02:08:51;33.78;;;14.20;;
84244;SDS011;74383;44.552;18.100;2024-02-14T02:11:17;35.42;;;13.82;;
84244;SDS011;74383;44.552;18.100;2024-02-14T02:13:43;34.95;;;13.73;;
84244;SDS011;74383;44.552;18.100;2024-02-14T02:16:09;30.98;;;12.70;;
84244;SDS011;74383;44.552;18.100;2024-02-14T02:18:34;31.98;;;11.77;;
84244;SDS011;74383;44.552;18.100;2024-02-14T02:21:00;27.95;;;11.32;;
84244;SDS011;74383;44.552;18.100;2024-02-14T02:23:29;31.45;;;11.60;;
84244;SDS011;74383;44.552;18.100;2024-02-14T02:25:55;36.22;;;13.38;;
84244;SDS011;74383;44.552;18.100;2024-02-14T02:28:20;40.60;;;13.98;;
84244;SDS011;74383;44.552;18.100;2024-02-14T02:30:46;35.72;;;14.90;;
84244;SDS011;74383;44.552;18.100;2024-02-14T02:33:11;39.15;;;13.60;;
84244;SDS011;74383;44.552;18.100;2024-02-14T02:35:39;43.30;;;13.85;;
84244;SDS011;74383;44.552;18.100;2024-02-14T02:38:07;40.42;;;14.45;;
84244;SDS011;74383;44.552;18.100;2024-02-14T02:40:32;46.72;;;16.98;;
84244;SDS011;74383;44.552;18.100;2024-02-14T02:42:58;43.15;;;15.90;;
84244;SDS011;74383;44.552;18.100;2024-02-14T02:45:24;49.28;;;16.98;;
84244;SDS011;74383;44.552;18.100;2024-02-14T02:47:49;35.72;;;12.95;;
84244;SDS011;74383;44.552;18.100;2024-02-14T02:50:16;46.35;;;19.17;;
84244;SDS011;74383;44.552;18.100;2024-02-14T02:52:42;50.63;;;19.92;;
84244;SDS011;74383;44.552;18.100;2024-02-14T02:55:08;47.55;;;19.40;;
84244;SDS011;74383;44.552;18.100;2024-02-14T02:57:34;46.05;;;18.42;;
84244;SDS011;74383;44.552;18.100;2024-02-14T03:00:02;48.85;;;18.13;;
84244;SDS011;74383;44.552;18.100;2024-02-14T03:02:30;44.53;;;17.45;;
84244;SDS011;74383;44.552;18.100;2024-02-14T03:04:56;51.78;;;19.73;;
84244;SDS011;74383;44.552;18.100;2024-02-14T03:07:22;46.85;;;18.00;;
84244;SDS011;74383;44.552;18.100;2024-02-14T03:09:48;45.80;;;18.13;;
84244;SDS011;74383;44.552;18.100;2024-02-14T03:12:14;49.45;;;17.70;;
84244;SDS011;74383;44.552;18.100;2024-02-14T03:14:41;45.15;;;16.48;;
84244;SDS011;74383;44.552;18.100;2024-02-14T03:17:09;41.80;;;17.02;;
84244;SDS011;74383;44.552;18.100;2024-02-14T03:19:35;36.95;;;12.57;;
84244;SDS011;74383;44.552;18.100;2024-02-14T03:22:04;37.22;;;12.88;;
84244;SDS011;74383;44.552;18.100;2024-02-14T03:24:30;39.15;;;14.50;;
84244;SDS011;74383;44.552;18.100;2024-02-14T03:26:56;36.05;;;13.88;;
84244;SDS011;74383;44.552;18.100;2024-02-14T03:29:22;38.92;;;14.77;;
84244;SDS011;74383;44.552;18.100;2024-02-14T03:31:48;35.03;;;13.98;;
84244;SDS011;74383;44.552;18.100;2024-02-14T03:34:13;36.47;;;14.48;;
84244;SDS011;74383;44.552;18.100;2024-02-14T03:36:39;42.13;;;14.20;;
84244;SDS011;74383;44.552;18.100;2024-02-14T03:39:05;40.75;;;15.25;;
84244;SDS011;74383;44.552;18.100;2024-02-14T03:41:31;42.35;;;15.98;;
84244;SDS011;74383;44.552;18.100;2024-02-14T03:43:57;39.67;;;14.75;;
84244;SDS011;74383;44.552;18.100;2024-02-14T03:46:28;32.00;;;12.73;;
84244;SDS011;74383;44.552;18.100;2024-02-14T03:48:54;40.70;;;14.75;;
84244;SDS011;74383;44.552;18.100;2024-02-14T03:51:20;47.35;;;15.73;;
84244;SDS011;74383;44.552;18.100;2024-02-14T03:53:47;43.05;;;15.00;;
84244;SDS011;74383;44.552;18.100;2024-02-14T03:56:13;40.83;;;14.65;;
84244;SDS011;74383;44.552;18.100;2024-02-14T03:58:39;38.70;;;14.60;;
84244;SDS011;74383;44.552;18.100;2024-02-14T04:01:05;45.22;;;15.57;;
84244;SDS011;74383;44.552;18.100;2024-02-14T04:03:30;41.28;;;15.70;;
84244;SDS011;74383;44.552;18.100;2024-02-14T04:05:56;46.38;;;14.85;;
84244;SDS011;74383;44.552;18.100;2024-02-14T04:08:22;50.85;;;18.98;;
84244;SDS011;74383;44.552;18.100;2024-02-14T04:10:49;51.10;;;19.83;;
84244;SDS011;74383;44.552;18.100;2024-02-14T04:13:19;57.63;;;21.58;;
84244;SDS011;74383;44.552;18.100;2024-02-14T04:15:44;44.65;;;20.70;;
84244;SDS011;74383;44.552;18.100;2024-02-14T04:18:11;48.92;;;19.77;;
84244;SDS011;74383;44.552;18.100;2024-02-14T04:20:37;52.80;;;20.50;;
84244;SDS011;74383;44.552;18.100;2024-02-14T04:23:03;54.65;;;20.83;;
84244;SDS011;74383;44.552;18.100;2024-02-14T04:25:31;51.13;;;18.30;;
84244;SDS011;74383;44.552;18.100;2024-02-14T04:27:57;46.13;;;19.08;;
84244;SDS011;74383;44.552;18.100;2024-02-14T04:30:24;53.60;;;22.02;;
84244;SDS011;74383;44.552;18.100;2024-02-14T04:32:50;54.45;;;19.48;;
84244;SDS011;74383;44.552;18.100;2024-02-14T04:35:17;49.88;;;18.92;;
84244;SDS011;74383;44.552;18.100;2024-02-14T04:37:46;41.75;;;14.60;;
84244;SDS011;74383;44.552;18.100;2024-02-14T04:40:13;42.30;;;15.00;;
84244;SDS011;74383;44.552;18.100;2024-02-14T04:42:39;41.63;;;14.55;;
84244;SDS011;74383;44.552;18.100;2024-02-14T04:45:05;45.10;;;16.73;;
84244;SDS011;74383;44.552;18.100;2024-02-14T04:47:32;38.80;;;14.20;;
84244;SDS011;74383;44.552;18.100;2024-02-14T04:49:57;43.63;;;16.38;;
84244;SDS011;74383;44.552;18.100;2024-02-14T04:52:23;47.45;;;19.25;;
84244;SDS011;74383;44.552;18.100;2024-02-14T04:54:49;66.47;;;26.48;;
84244;SDS011;74383;44.552;18.100;2024-02-14T04:57:14;64.63;;;25.42;;
84244;SDS011;74383;44.552;18.100;2024-02-14T04:59:40;49.25;;;18.52;;
84244;SDS011;74383;44.552;18.100;2024-02-14T05:02:06;40.33;;;17.02;;
84244;SDS011;74383;44.552;18.100;2024-02-14T05:04:32;50.38;;;19.13;;
84244;SDS011;74383;44.552;18.100;2024-02-14T05:07:00;44.70;;;17.40;;
84244;SDS011;74383;44.552;18.100;2024-02-14T05:09:26;43.70;;;17.33;;
84244;SDS011;74383;44.552;18.100;2024-02-14T05:11:51;43.78;;;16.77;;
84244;SDS011;74383;44.552;18.100;2024-02-14T05:14:17;40.15;;;16.83;;
84244;SDS011;74383;44.552;18.100;2024-02-14T05:16:43;49.03;;;18.20;;
84244;SDS011;74383;44.552;18.100;2024-02-14T05:19:08;48.90;;;20.45;;
84244;SDS011;74383;44.552;18.100;2024-02-14T05:21:34;45.97;;;19.77;;
84244;SDS011;74383;44.552;18.100;2024-02-14T05:24:00;54.60;;;20.77;;
84244;SDS011;74383;44.552;18.100;2024-02-14T05:26:26;48.38;;;20.60;;
84244;SDS011;74383;44.552;18.100;2024-02-14T05:28:51;49.85;;;20.00;;
84244;SDS011;74383;44.552;18.100;2024-02-14T05:31:17;54.22;;;19.67;;
84244;SDS011;74383;44.552;18.100;2024-02-14T05:33:42;49.88;;;19.98;;
84244;SDS011;74383;44.552;18.100;2024-02-14T05:36:08;71.28;;;23.38;;
84244;SDS011;74383;44.552;18.100;2024-02-14T05:38:34;50.00;;;22.20;;
84244;SDS011;74383;44.552;18.100;2024-02-14T05:40:59;46.72;;;18.80;;
84244;SDS011;74383;44.552;18.100;2024-02-14T05:43:25;59.05;;;22.95;;
84244;SDS011;74383;44.552;18.100;2024-02-14T05:45:51;60.45;;;24.38;;
84244;SDS011;74383;44.552;18.100;2024-02-14T05:48:16;48.70;;;21.15;;
84244;SDS011;74383;44.552;18.100;2024-02-14T05:50:42;50.30;;;18.85;;
84244;SDS011;74383;44.552;18.100;2024-02-14T05:53:08;38.25;;;17.98;;
84244;SDS011;74383;44.552;18.100;2024-02-14T05:55:33;37.83;;;18.20;;
84244;SDS011;74383;44.552;18.100;2024-02-14T05:57:59;43.35;;;19.17;;
84244;SDS011;74383;44.552;18.100;2024-02-14T06:00:25;64.00;;;20.73;;
84244;SDS011;74383;44.552;18.100;2024-02-14T06:02:51;58.60;;;20.15;;
84244;SDS011;74383;44.552;18.100;2024-02-14T06:05:17;38.60;;;17.65;;
84244;SDS011;74383;44.552;18.100;2024-02-14T06:07:43;37.97;;;16.55;;
84244;SDS011;74383;44.552;18.100;2024-02-14T06:10:12;56.80;;;16.63;;
84244;SDS011;74383;44.552;18.100;2024-02-14T06:12:38;35.13;;;16.23;;
84244;SDS011;74383;44.552;18.100;2024-02-14T06:15:06;45.55;;;17.92;;
84244;SDS011;74383;44.552;18.100;2024-02-14T06:17:33;51.72;;;19.88;;
84244;SDS011;74383;44.552;18.100;2024-02-14T06:19:58;43.92;;;18.48;;
84244;SDS011;74383;44.552;18.100;2024-02-14T06:22:25;42.92;;;19.27;;
84244;SDS011;74383;44.552;18.100;2024-02-14T06:24:51;47.55;;;18.05;;
84244;SDS011;74383;44.552;18.100;2024-02-14T06:27:16;41.25;;;17.90;;
84244;SDS011;74383;44.552;18.100;2024-02-14T06:29:42;56.10;;;17.88;;
84244;SDS011;74383;44.552;18.100;2024-02-14T06:32:08;41.88;;;19.48;;
84244;SDS011;74383;44.552;18.100;2024-02-14T06:34:34;44.90;;;21.00;;
84244;SDS011;74383;44.552;18.100;2024-02-14T06:37:00;50.78;;;19.98;;
84244;SDS011;74383;44.552;18.100;2024-02-14T06:39:25;46.55;;;18.15;;
84244;SDS011;74383;44.552;18.100;2024-02-14T06:41:52;42.40;;;19.50;;
84244;SDS011;74383;44.552;18.100;2024-02-14T06:44:17;40.92;;;19.00;;
84244;SDS011;74383;44.552;18.100;2024-02-14T06:46:43;52.80;;;22.13;;
84244;SDS011;74383;44.552;18.100;2024-02-14T06:49:09;58.92;;;22.58;;
84244;SDS011;74383;44.552;18.100;2024-02-14T06:51:35;67.85;;;24.27;;
84244;SDS011;74383;44.552;18.100;2024-02-14T06:54:01;51.75;;;22.95;;
84244;SDS011;74383;44.552;18.100;2024-02-14T06:56:29;61.83;;;23.75;;
84244;SDS011;74383;44.552;18.100;2024-02-14T06:58:56;72.38;;;27.55;;
84244;SDS011;74383;44.552;18.100;2024-02-14T07:01:28;78.50;;;30.58;;
84244;SDS011;74383;44.552;18.100;2024-02-14T07:03:54;82.30;;;35.17;;
84244;SDS011;74383;44.552;18.100;2024-02-14T07:06:20;77.90;;;31.05;;
84244;SDS011;74383;44.552;18.100;2024-02-14T07:08:46;75.88;;;31.50;;
84244;SDS011;74383;44.552;18.100;2024-02-14T07:11:13;70.82;;;29.83;;
84244;SDS011;74383;44.552;18.100;2024-02-14T07:13:42;98.22;;;32.42;;
84244;SDS011;74383;44.552;18.100;2024-02-14T07:16:08;96.78;;;38.35;;
84244;SDS011;74383;44.552;18.100;2024-02-14T07:18:34;100.65;;;40.25;;
84244;SDS011;74383;44.552;18.100;2024-02-14T07:21:00;115.65;;;46.28;;
84244;SDS011;74383;44.552;18.100;2024-02-14T07:23:29;87.88;;;37.35;;
84244;SDS011;74383;44.552;18.100;2024-02-14T07:25:56;91.97;;;35.58;;
84244;SDS011;74383;44.552;18.100;2024-02-14T07:28:21;123.78;;;38.75;;
84244;SDS011;74383;44.552;18.100;2024-02-14T07:30:48;120.65;;;41.25;;
84244;SDS011;74383;44.552;18.100;2024-02-14T07:33:14;120.68;;;43.60;;
84244;SDS011;74383;44.552;18.100;2024-02-14T07:35:41;126.25;;;43.85;;
84244;SDS011;74383;44.552;18.100;2024-02-14T07:38:07;120.43;;;44.67;;
84244;SDS011;74383;44.552;18.100;2024-02-14T07:40:33;148.45;;;49.67;;
84244;SDS011;74383;44.552;18.100;2024-02-14T07:42:59;116.30;;;46.63;;
84244;SDS011;74383;44.552;18.100;2024-02-14T07:45:25;116.50;;;45.15;;
84244;SDS011;74383;44.552;18.100;2024-02-14T07:47:51;124.30;;;44.60;;
84244;SDS011;74383;44.552;18.100;2024-02-14T07:50:17;121.75;;;45.72;;
84244;SDS011;74383;44.552;18.100;2024-02-14T07:52:43;115.63;;;41.25;;
84244;SDS011;74383;44.552;18.100;2024-02-14T07:55:10;110.28;;;39.53;;
84244;SDS011;74383;44.552;18.100;2024-02-14T07:57:38;116.75;;;41.72;;
84244;SDS011;74383;44.552;18.100;2024-02-14T08:00:07;109.22;;;38.92;;
84244;SDS011;74383;44.552;18.100;2024-02-14T08:02:34;103.85;;;35.78;;
84244;SDS011;74383;44.552;18.100;2024-02-14T08:05:00;101.90;;;37.53;;
84244;SDS011;74383;44.552;18.100;2024-02-14T08:07:26;92.82;;;35.50;;
84244;SDS011;74383;44.552;18.100;2024-02-14T08:09:52;93.78;;;35.30;;
84244;SDS011;74383;44.552;18.100;2024-02-14T08:12:18;99.22;;;36.60;;
84244;SDS011;74383;44.552;18.100;2024-02-14T08:14:44;109.70;;;39.95;;
84244;SDS011;74383;44.552;18.100;2024-02-14T08:17:09;116.03;;;43.42;;
84244;SDS011;74383;44.552;18.100;2024-02-14T08:19:35;98.55;;;35.10;;
84244;SDS011;74383;44.552;18.100;2024-02-14T08:22:00;96.22;;;36.28;;
84244;SDS011;74383;44.552;18.100;2024-02-14T08:24:27;100.28;;;36.80;;
84244;SDS011;74383;44.552;18.100;2024-02-14T08:26:53;99.25;;;35.85;;
84244;SDS011;74383;44.552;18.100;2024-02-14T08:29:20;92.25;;;36.45;;
84244;SDS011;74383;44.552;18.100;2024-02-14T08:31:46;90.60;;;33.78;;
84244;SDS011;74383;44.552;18.100;2024-02-14T08:34:12;87.25;;;35.63;;
84244;SDS011;74383;44.552;18.100;2024-02-14T08:36:37;89.93;;;35.42;;
84244;SDS011;74383;44.552;18.100;2024-02-14T08:39:07;100.40;;;35.13;;
84244;SDS011;74383;44.552;18.100;2024-02-14T08:41:35;91.53;;;35.88;;
84244;SDS011;74383;44.552;18.100;2024-02-14T08:44:10;90.32;;;35.47;;
84244;SDS011;74383;44.552;18.100;2024-02-14T08:46:35;90.80;;;36.03;;
84244;SDS011;74383;44.552;18.100;2024-02-14T08:49:01;98.70;;;38.28;;
84244;SDS011;74383;44.552;18.100;2024-02-14T08:51:28;88.68;;;36.95;;
84244;SDS011;74383;44.552;18.100;2024-02-14T08:53:54;98.90;;;40.35;;
84244;SDS011;74383;44.552;18.100;2024-02-14T08:56:22;96.05;;;37.97;;
84244;SDS011;74383;44.552;18.100;2024-02-14T08:58:48;98.57;;;39.58;;
84244;SDS011;74383;44.552;18.100;2024-02-14T09:01:14;100.57;;;39.72;;
84244;SDS011;74383;44.552;18.100;2024-02-14T09:03:41;99.93;;;42.70;;
84244;SDS011;74383;44.552;18.100;2024-02-14T09:06:13;88.45;;;37.75;;
84244;SDS011;74383;44.552;18.100;2024-02-14T09:08:40;95.68;;;39.50;;
84244;SDS011;74383;44.552;18.100;2024-02-14T09:11:08;98.03;;;39.78;;
84244;SDS011;74383;44.552;18.100;2024-02-14T09:13:34;102.07;;;40.92;;
84244;SDS011;74383;44.552;18.100;2024-02-14T09:16:00;108.32;;;44.17;;
84244;SDS011;74383;44.552;18.100;2024-02-14T09:18:26;95.40;;;42.78;;
84244;SDS011;74383;44.552;18.100;2024-02-14T09:20:52;106.38;;;43.88;;
84244;SDS011;74383;44.552;18.100;2024-02-14T09:23:18;107.88;;;46.38;;
84244;SDS011;74383;44.552;18.100;2024-02-14T09:25:48;117.90;;;50.20;;
84244;SDS011;74383;44.552;18.100;2024-02-14T09:28:17;113.10;;;50.78;;
84244;SDS011;74383;44.552;18.100;2024-02-14T09:30:43;120.22;;;56.08;;
84244;SDS011;74383;44.552;18.100;2024-02-14T09:33:09;106.15;;;50.80;;
84244;SDS011;74383;44.552;18.100;2024-02-14T09:35:35;109.88;;;49.28;;
84244;SDS011;74383;44.552;18.100;2024-02-14T09:38:03;116.40;;;51.03;;
84244;SDS011;74383;44.552;18.100;2024-02-14T09:40:29;123.93;;;58.65;;
84244;SDS011;74383;44.552;18.100;2024-02-14T09:42:55;114.75;;;55.03;;
84244;SDS011;74383;44.552;18.100;2024-02-14T09:45:26;92.75;;;45.85;;
84244;SDS011;74383;44.552;18.100;2024-02-14T09:47:53;62.53;;;29.15;;
84244;SDS011;74383;44.552;18.100;2024-02-14T09:50:20;65.30;;;34.13;;
84244;SDS011;74383;44.552;18.100;2024-02-14T09:52:49;65.82;;;31.25;;
84244;SDS011;74383;44.552;18.100;2024-02-14T09:55:15;60.38;;;30.10;;
84244;SDS011;74383;44.552;18.100;2024-02-14T09:57:41;58.50;;;29.42;;
84244;SDS011;74383;44.552;18.100;2024-02-14T10:00:11;57.40;;;27.98;;
84244;SDS011;74383;44.552;18.100;2024-02-14T10:02:40;48.35;;;24.85;;
84244;SDS011;74383;44.552;18.100;2024-02-14T10:05:06;45.78;;;21.30;;
84244;SDS011;74383;44.552;18.100;2024-02-14T10:07:42;34.83;;;17.40;;
84244;SDS011;74383;44.552;18.100;2024-02-14T10:10:08;31.13;;;17.83;;
84244;SDS011;74383;44.552;18.100;2024-02-14T10:12:35;40.42;;;20.10;;
84244;SDS011;74383;44.552;18.100;2024-02-14T10:15:01;31.67;;;15.68;;
84244;SDS011;74383;44.552;18.100;2024-02-14T10:17:27;15.10;;;8.55;;
84244;SDS011;74383;44.552;18.100;2024-02-14T10:19:59;9.60;;;6.65;;
84244;SDS011;74383;44.552;18.100;2024-02-14T10:22:36;12.05;;;7.50;;
84244;SDS011;74383;44.552;18.100;2024-02-14T10:25:05;9.60;;;5.63;;
84244;SDS011;74383;44.552;18.100;2024-02-14T10:27:38;11.75;;;6.57;;
84244;SDS011;74383;44.552;18.100;2024-02-14T10:30:05;14.65;;;10.80;;
84244;SDS011;74383;44.552;18.100;2024-02-14T10:32:35;11.13;;;7.22;;
84244;SDS011;74383;44.552;18.100;2024-02-14T10:35:05;10.75;;;7.70;;
84244;SDS011;74383;44.552;18.100;2024-02-14T10:37:37;8.85;;;5.93;;
84244;SDS011;74383;44.552;18.100;2024-02-14T10:40:03;6.80;;;5.13;;
84244;SDS011;74383;44.552;18.100;2024-02-14T10:42:30;7.55;;;4.90;;
84244;SDS011;74383;44.552;18.100;2024-02-14T10:44:56;8.32;;;5.90;;
84244;SDS011;74383;44.552;18.100;2024-02-14T10:47:28;9.85;;;5.85;;
84244;SDS011;74383;44.552;18.100;2024-02-14T10:49:57;7.93;;;5.35;;
84244;SDS011;74383;44.552;18.100;2024-02-14T10:52:29;10.13;;;5.43;;
84244;SDS011;74383;44.552;18.100;2024-02-14T10:54:58;13.23;;;8.18;;
84244;SDS011;74383;44.552;18.100;2024-02-14T10:57:26;13.40;;;7.30;;
84244;SDS011;74383;44.552;18.100;2024-02-14T10:59:54;8.10;;;5.30;;
84244;SDS011;74383;44.552;18.100;2024-02-14T11:02:21;15.05;;;7.88;;
84244;SDS011;74383;44.552;18.100;2024-02-14T11:04:48;14.88;;;7.30;;
84244;SDS011;74383;44.552;18.100;2024-02-14T11:07:19;10.38;;;6.13;;
84244;SDS011;74383;44.552;18.100;2024-02-14T11:09:48;10.00;;;5.63;;
84244;SDS011;74383;44.552;18.100;2024-02-14T11:12:13;13.40;;;7.65;;
84244;SDS011;74383;44.552;18.100;2024-02-14T11:14:41;17.58;;;9.15;;
84244;SDS011;74383;44.552;18.100;2024-02-14T11:17:09;10.07;;;6.30;;
84244;SDS011;74383;44.552;18.100;2024-02-14T11:19:35;8.57;;;6.40;;
84244;SDS011;74383;44.552;18.100;2024-02-14T11:22:20;8.07;;;5.40;;
84244;SDS011;74383;44.552;18.100;2024-02-14T11:24:47;9.00;;;6.38;;
84244;SDS011;74383;44.552;18.100;2024-02-14T11:27:13;7.78;;;5.53;;
84244;SDS011;74383;44.552;18.100;2024-02-14T11:29:40;7.28;;;4.88;;
84244;SDS011;74383;44.552;18.100;2024-02-14T11:32:10;7.97;;;5.60;;
84244;SDS011;74383;44.552;18.100;2024-02-14T11:34:36;8.60;;;6.40;;
84244;SDS011;74383;44.552;18.100;2024-02-14T11:37:02;7.03;;;5.07;;
84244;SDS011;74383;44.552;18.100;2024-02-14T11:39:30;7.32;;;5.10;;
84244;SDS011;74383;44.552;18.100;2024-02-14T11:41:58;6.35;;;4.25;;
84244;SDS011;74383;44.552;18.100;2024-02-14T11:44:25;7.80;;;4.20;;
84244;SDS011;74383;44.552;18.100;2024-02-14T11:46:51;8.48;;;5.40;;
84244;SDS011;74383;44.552;18.100;2024-02-14T11:49:17;12.48;;;6.43;;
84244;SDS011;74383;44.552;18.100;2024-02-14T11:51:42;8.98;;;5.70;;
84244;SDS011;74383;44.552;18.100;2024-02-14T11:54:08;9.20;;;5.30;;
84244;SDS011;74383;44.552;18.100;2024-02-14T11:56:37;10.43;;;6.78;;
84244;SDS011;74383;44.552;18.100;2024-02-14T11:59:04;10.63;;;5.25;;
84244;SDS011;74383;44.552;18.100;2024-02-14T12:01:34;7.95;;;5.25;;
84244;SDS011;74383;44.552;18.100;2024-02-14T12:04:02;5.32;;;3.45;;
84244;SDS011;74383;44.552;18.100;2024-02-14T12:06:30;5.53;;;3.83;;
84244;SDS011;74383;44.552;18.100;2024-02-14T12:09:00;5.03;;;3.83;;
84244;SDS011;74383;44.552;18.100;2024-02-14T12:11:37;4.85;;;3.35;;
84244;SDS011;74383;44.552;18.100;2024-02-14T12:14:07;5.55;;;3.92;;
84244;SDS011;74383;44.552;18.100;2024-02-14T12:16:34;6.35;;;3.60;;
84244;SDS011;74383;44.552;18.100;2024-02-14T12:19:05;4.88;;;3.80;;
84244;SDS011;74383;44.552;18.100;2024-02-14T12:21:37;7.20;;;3.57;;
84244;SDS011;74383;44.552;18.100;2024-02-14T12:24:07;5.85;;;3.90;;
84244;SDS011;74383;44.552;18.100;2024-02-14T12:26:35;5.97;;;4.18;;
84244;SDS011;74383;44.552;18.100;2024-02-14T12:29:02;6.10;;;3.80;;
84244;SDS011;74383;44.552;18.100;2024-02-14T12:31:32;5.50;;;4.35;;
84244;SDS011;74383;44.552;18.100;2024-02-14T12:34:00;5.95;;;3.80;;
84244;SDS011;74383;44.552;18.100;2024-02-14T12:36:28;8.07;;;3.83;;
84244;SDS011;74383;44.552;18.100;2024-02-14T12:38:57;4.13;;;3.30;;
84244;SDS011;74383;44.552;18.100;2024-02-14T12:41:22;3.35;;;2.72;;
84244;SDS011;74383;44.552;18.100;2024-02-14T12:43:52;4.15;;;2.90;;
84244;SDS011;74383;44.552;18.100;2024-02-14T12:46:18;9.57;;;5.80;;
84244;SDS011;74383;44.552;18.100;2024-02-14T12:48:44;8.00;;;3.60;;
84244;SDS011;74383;44.552;18.100;2024-02-14T12:51:10;2.90;;;2.58;;
84244;SDS011;74383;44.552;18.100;2024-02-14T12:53:36;4.00;;;2.80;;
84244;SDS011;74383;44.552;18.100;2024-02-14T12:56:01;4.40;;;3.10;;
84244;SDS011;74383;44.552;18.100;2024-02-14T12:58:30;3.70;;;3.40;;
84244;SDS011;74383;44.552;18.100;2024-02-14T13:00:56;5.47;;;3.20;;
84244;SDS011;74383;44.552;18.100;2024-02-14T13:03:24;5.38;;;3.28;;
84244;SDS011;74383;44.552;18.100;2024-02-14T13:05:50;4.32;;;3.25;;
84244;SDS011;74383;44.552;18.100;2024-02-14T13:08:17;4.90;;;3.55;;
84244;SDS011;74383;44.552;18.100;2024-02-14T13:10:43;5.40;;;3.10;;
84244;SDS011;74383;44.552;18.100;2024-02-14T13:13:09;7.63;;;2.88;;
84244;SDS011;74383;44.552;18.100;2024-02-14T13:15:55;13.45;;;6.30;;
84244;SDS011;74383;44.552;18.100;2024-02-14T13:18:20;11.10;;;5.53;;
84244;SDS011;74383;44.552;18.100;2024-02-14T13:20:46;3.30;;;2.80;;
84244;SDS011;74383;44.552;18.100;2024-02-14T13:23:12;5.07;;;3.00;;
84244;SDS011;74383;44.552;18.100;2024-02-14T13:25:39;6.10;;;3.03;;
84244;SDS011;74383;44.552;18.100;2024-02-14T13:28:05;5.07;;;3.03;;
84244;SDS011;74383;44.552;18.100;2024-02-14T13:30:31;6.43;;;3.42;;
84244;SDS011;74383;44.552;18.100;2024-02-14T13:32:58;4.75;;;2.80;;
84244;SDS011;74383;44.552;18.100;2024-02-14T13:35:23;3.60;;;2.72;;
84244;SDS011;74383;44.552;18.100;2024-02-14T13:37:49;3.13;;;2.72;;
84244;SDS011;74383;44.552;18.100;2024-02-14T13:40:15;4.40;;;3.10;;
84244;SDS011;74383;44.552;18.100;2024-02-14T13:42:40;5.30;;;3.47;;
84244;SDS011;74383;44.552;18.100;2024-02-14T13:45:06;4.90;;;3.70;;
84244;SDS011;74383;44.552;18.100;2024-02-14T13:47:40;6.40;;;4.22;;
84244;SDS011;74383;44.552;18.100;2024-02-14T13:50:07;4.45;;;3.42;;
84244;SDS011;74383;44.552;18.100;2024-02-14T13:52:34;3.63;;;2.70;;
84244;SDS011;74383;44.552;18.100;2024-02-14T13:55:01;4.53;;;3.08;;
84244;SDS011;74383;44.552;18.100;2024-02-14T13:57:28;4.32;;;3.08;;
84244;SDS011;74383;44.552;18.100;2024-02-14T13:59:55;3.83;;;3.05;;
84244;SDS011;74383;44.552;18.100;2024-02-14T14:02:20;5.95;;;4.05;;
84244;SDS011;74383;44.552;18.100;2024-02-14T14:04:46;6.07;;;3.47;;
84244;SDS011;74383;44.552;18.100;2024-02-14T14:07:13;4.22;;;3.08;;
84244;SDS011;74383;44.552;18.100;2024-02-14T14:09:38;5.03;;;3.20;;
84244;SDS011;74383;44.552;18.100;2024-02-14T14:12:04;5.05;;;3.35;;